Cincinnati, Ohio
Traffic Map
Current Weather Conditions
Cincinnati, Ohio
Clear
Clear

Feels Like: -5°
Wind Chill: -5° Ceiling: Unl
Heat Index: Visibility: 10mi
Dew Point: -8° Wind: 15mph
Humidity: 52% Direction: 270° (W)
Pressure: 30.31in Gusts: 28mph
Raw Report DataKLUK 081753Z 27013G24KT 10SM CLR 01/M08 A3031 RMK AO2 SLP267 T00061083 10011 21028 58001
Traffic Incident Summary
Active as of:
Severity:
Category:
InformationThere was an issue retrieving the traffic information for this location. Please try a different location or try again shortly.
Advertisements
Track Severe Weather on mobile